Time;durP1;ratioP1;P1;durP2;ratioP2;P2;SDS_P1;SDS_P2;PMS_P1;PMS_P2;Temp;Humidity;BMP_temperature;BMP_pressure;BME280_temperature;BME280_humidity;BME280_pressure;Samples;Min_cycle;Max_cycle;Signal;HPM_P1;HPM_P2
2021/10/30 07:19:54;;;;;;;21.05;13.13;;;;;;;;;;5010124;28;20099;-75
2021/10/30 07:22:20;;;;;;;21.23;14.23;;;;;;;;;;5032616;28;20053;-73
2021/10/30 07:24:46;;;;;;;23.17;15.45;;;;;;;;;;5031336;28;20029;-74
2021/10/30 07:27:16;;;;;;;22.38;15.85;;;;;;;;;;5032302;28;20048;-74
2021/10/30 07:29:44;;;;;;;22.60;14.45;;;;;;;;;;5048509;28;20494;-71
2021/10/30 07:32:10;;;;;;;23.45;15.82;;;;;;;;;;5032531;28;20033;-74
2021/10/30 07:34:37;;;;;;;28.75;15.77;;;;;;;;;;5048550;28;20521;-72
2021/10/30 07:37:04;;;;;;;26.42;16.10;;;;;;;;;;5032821;28;20509;-74
2021/10/30 07:39:30;;;;;;;20.42;14.60;;;;;;;;;;5027874;28;20049;-73
2021/10/30 07:41:55;;;;;;;22.48;14.80;;;;;;;;;;5048418;28;20348;-72
2021/10/30 07:44:20;;;;;;;24.73;15.25;;;;;;;;;;5032749;28;20055;-73
2021/10/30 07:46:46;;;;;;;25.52;15.48;;;;;;;;;;5047075;28;20041;-73
2021/10/30 10:03:01;;;;;;;20.90;11.65;;;;;;;;;;5006586;28;20534;-72
2021/10/30 10:05:28;;;;;;;18.67;10.82;;;;;;;;;;5005116;28;20042;-72
2021/10/30 13:48:21;;;;;;;32.97;22.15;;;;;;;;;;5011003;28;20109;-74
2021/10/30 13:50:47;;;;;;;30.52;21.70;;;;;;;;;;5008001;28;20156;-74
2021/10/30 13:53:13;;;;;;;35.30;20.77;;;;;;;;;;5010832;28;20550;-74
2021/10/30 13:55:38;;;;;;;30.48;20.73;;;;;;;;;;5010548;28;20038;-73
2021/10/30 13:58:04;;;;;;;40.47;22.40;;;;;;;;;;4989026;28;20051;-73
2021/10/30 14:00:31;;;;;;;31.60;20.45;;;;;;;;;;5007447;28;20121;-73
2021/10/30 14:03:00;;;;;;;39.67;22.48;;;;;;;;;;5009285;28;20046;-74
2021/10/30 14:05:26;;;;;;;31.48;20.58;;;;;;;;;;5010942;28;20041;-72
2021/10/30 14:07:51;;;;;;;29.88;20.27;;;;;;;;;;4993166;28;20034;-73
2021/10/30 14:10:17;;;;;;;30.08;21.45;;;;;;;;;;4993691;28;20128;-73
2021/10/30 14:12:42;;;;;;;33.05;21.27;;;;;;;;;;4989411;28;20496;-71
2021/10/30 14:15:09;;;;;;;33.10;22.40;;;;;;;;;;5010813;28;20034;-71
2021/10/30 14:17:36;;;;;;;30.17;19.90;;;;;;;;;;5011257;28;20515;-72
2021/10/30 14:20:03;;;;;;;34.08;22.63;;;;;;;;;;5010654;28;20034;-72
2021/10/30 14:22:30;;;;;;;29.52;19.65;;;;;;;;;;5011338;28;20042;-72
2021/10/30 14:24:55;;;;;;;33.47;21.17;;;;;;;;;;5013657;28;20026;-73
2021/10/30 14:27:21;;;;;;;33.15;19.50;;;;;;;;;;5014679;28;20475;-74
2021/10/30 14:29:46;;;;;;;35.08;20.83;;;;;;;;;;5015048;28;20038;-72
2021/10/30 14:32:13;;;;;;;34.40;20.65;;;;;;;;;;4997435;28;20030;-72
2021/10/30 14:34:39;;;;;;;30.38;20.58;;;;;;;;;;5009818;28;20041;-71
2021/10/30 14:37:05;;;;;;;48.45;21.55;;;;;;;;;;5014603;28;20038;-74
2021/10/30 14:39:30;;;;;;;31.83;22.77;;;;;;;;;;5014851;28;20125;-71
2021/10/30 14:41:56;;;;;;;36.33;22.00;;;;;;;;;;5014499;28;20192;-71
2021/10/30 14:44:22;;;;;;;36.45;22.67;;;;;;;;;;4997040;28;20038;-72
2021/10/30 14:46:49;;;;;;;32.22;21.98;;;;;;;;;;5000472;28;20519;-72
2021/10/30 14:49:15;;;;;;;30.25;21.88;;;;;;;;;;4976543;28;20031;-73
2021/10/30 14:51:40;;;;;;;33.70;22.30;;;;;;;;;;4994552;28;20043;-72
2021/10/30 14:54:06;;;;;;;34.28;22.13;;;;;;;;;;4977049;28;20030;-73
2021/10/30 14:56:31;;;;;;;30.52;21.90;;;;;;;;;;4990118;28;20066;-72
2021/10/30 14:58:57;;;;;;;34.35;20.95;;;;;;;;;;4993998;28;20121;-72
2021/10/30 15:01:24;;;;;;;41.03;23.70;;;;;;;;;;4993536;28;20487;-71
2021/10/30 15:03:51;;;;;;;36.35;24.05;;;;;;;;;;4976244;28;20116;-72
2021/10/30 15:06:21;;;;;;;43.13;27.38;;;;;;;;;;4995039;28;20038;-72
2021/10/30 15:08:46;;;;;;;58.58;32.38;;;;;;;;;;4992305;28;20045;-72
2021/10/30 15:11:14;;;;;;;60.30;31.42;;;;;;;;;;4994191;28;20046;-73
2021/10/30 15:13:40;;;;;;;44.17;27.63;;;;;;;;;;4993908;28;20046;-72
2021/10/30 15:16:07;;;;;;;50.97;30.08;;;;;;;;;;4991626;28;20121;-71
2021/10/30 15:18:33;;;;;;;54.88;31.02;;;;;;;;;;4987429;28;20049;-73
2021/10/30 15:20:58;;;;;;;43.83;27.65;;;;;;;;;;4993472;28;20433;-72
2021/10/30 15:23:24;;;;;;;42.85;27.13;;;;;;;;;;4976844;28;20518;-71
2021/10/30 15:25:50;;;;;;;42.00;27.00;;;;;;;;;;4993937;28;20030;-72
2021/10/30 15:28:15;;;;;;;40.42;26.17;;;;;;;;;;4993688;28;20049;-71
2021/10/30 15:30:41;;;;;;;39.75;26.13;;;;;;;;;;4992595;28;20090;-72
2021/10/30 15:33:07;;;;;;;42.67;25.20;;;;;;;;;;4993772;28;20468;-72
2021/10/30 15:35:34;;;;;;;37.40;26.98;;;;;;;;;;4993249;28;20044;-74
2021/10/30 15:38:00;;;;;;;38.38;25.75;;;;;;;;;;4992140;28;20038;-74
2021/10/30 15:40:26;;;;;;;41.42;26.90;;;;;;;;;;4988858;28;20109;-71
2021/10/30 15:42:52;;;;;;;42.88;26.00;;;;;;;;;;4976534;28;20436;-75
2021/10/30 15:45:18;;;;;;;43.25;27.67;;;;;;;;;;4993505;28;20037;-73
2021/10/30 15:47:48;;;;;;;41.80;25.45;;;;;;;;;;4976561;28;20034;-71
2021/10/30 15:50:15;;;;;;;40.63;27.02;;;;;;;;;;4993603;28;20045;-73
2021/10/30 15:52:42;;;;;;;44.13;29.23;;;;;;;;;;4977138;28;20050;-72
2021/10/30 15:55:10;;;;;;;43.20;27.88;;;;;;;;;;4976530;28;20038;-72
2021/10/30 15:57:35;;;;;;;45.10;29.13;;;;;;;;;;4993360;28;20034;-73
2021/10/30 16:00:06;;;;;;;43.35;26.98;;;;;;;;;;4992280;28;20054;-73
2021/10/30 16:02:32;;;;;;;47.08;31.55;;;;;;;;;;4988952;28;20415;-73
2021/10/30 16:04:57;;;;;;;43.75;27.05;;;;;;;;;;4992974;28;20037;-72
2021/10/30 16:07:23;;;;;;;50.83;27.42;;;;;;;;;;4993421;28;20046;-74
2021/10/30 16:09:49;;;;;;;41.38;26.85;;;;;;;;;;4993707;28;20049;-72
2021/10/30 16:12:19;;;;;;;39.25;24.92;;;;;;;;;;4975811;28;20435;-72
2021/10/30 16:14:46;;;;;;;39.30;25.20;;;;;;;;;;4976315;28;20079;-72
2021/10/30 16:17:11;;;;;;;39.50;26.23;;;;;;;;;;4993318;28;20042;-74
2021/10/30 16:19:37;;;;;;;46.10;30.02;;;;;;;;;;4993353;28;20462;-73
2021/10/30 16:22:03;;;;;;;39.42;25.10;;;;;;;;;;4992760;28;20129;-71
2021/10/30 16:24:29;;;;;;;38.65;25.33;;;;;;;;;;4987930;28;20057;-73
2021/10/30 16:26:55;;;;;;;36.85;25.02;;;;;;;;;;4993055;28;20086;-72
2021/10/30 16:29:21;;;;;;;36.63;23.60;;;;;;;;;;4975030;28;20377;-71
2021/10/30 16:31:47;;;;;;;34.28;23.25;;;;;;;;;;4993420;28;20137;-71
2021/10/30 16:34:13;;;;;;;37.55;25.75;;;;;;;;;;4993105;28;20452;-72
2021/10/30 16:36:40;;;;;;;35.88;23.63;;;;;;;;;;4991683;28;20042;-73
2021/10/30 16:39:08;;;;;;;39.92;26.67;;;;;;;;;;4991872;28;20038;-71
2021/10/30 16:41:35;;;;;;;35.65;23.90;;;;;;;;;;4975288;28;20057;-73
2021/10/30 16:44:01;;;;;;;36.45;23.40;;;;;;;;;;4992669;28;20041;-74
2021/10/30 16:46:26;;;;;;;37.45;24.75;;;;;;;;;;4988856;28;20058;-72
2021/10/30 16:48:53;;;;;;;35.75;22.70;;;;;;;;;;4991976;28;20148;-73
2021/10/30 16:51:20;;;;;;;39.67;25.20;;;;;;;;;;4992887;28;20034;-73
2021/10/30 16:53:46;;;;;;;40.83;24.67;;;;;;;;;;4991554;28;20045;-73
2021/10/30 16:56:12;;;;;;;41.10;23.73;;;;;;;;;;4992381;28;20129;-73
2021/10/30 16:58:40;;;;;;;35.10;22.33;;;;;;;;;;4992602;28;20042;-73
2021/10/30 17:01:05;;;;;;;36.30;24.65;;;;;;;;;;4992225;28;20031;-73
2021/10/30 17:03:33;;;;;;;36.17;23.67;;;;;;;;;;4992939;28;20038;-74
2021/10/30 17:06:00;;;;;;;36.20;23.38;;;;;;;;;;4992887;28;20035;-75
2021/10/30 17:08:26;;;;;;;34.55;22.65;;;;;;;;;;4989271;28;20034;-74
2021/10/30 17:10:52;;;;;;;33.58;23.35;;;;;;;;;;4992987;28;20066;-73
2021/10/30 17:13:17;;;;;;;42.78;24.67;;;;;;;;;;4992795;28;20129;-72
2021/10/30 17:15:43;;;;;;;36.05;22.70;;;;;;;;;;4992975;28;20109;-72
2021/10/30 17:18:08;;;;;;;34.15;21.75;;;;;;;;;;4992759;28;20444;-73
2021/10/30 17:20:35;;;;;;;32.92;22.75;;;;;;;;;;4974948;28;20038;-72
2021/10/30 17:23:01;;;;;;;34.80;23.60;;;;;;;;;;4992606;28;20050;-72
2021/10/30 17:25:27;;;;;;;34.97;24.27;;;;;;;;;;4991726;28;20038;-71
2021/10/30 17:27:53;;;;;;;34.17;23.33;;;;;;;;;;4990655;28;20096;-73
2021/10/30 17:30:18;;;;;;;34.08;23.08;;;;;;;;;;4989133;28;20523;-71
2021/10/30 17:32:49;;;;;;;34.72;23.88;;;;;;;;;;4992019;28;20105;-71
2021/10/30 17:35:16;;;;;;;38.47;24.55;;;;;;;;;;4991346;28;20121;-71
2021/10/30 17:37:43;;;;;;;45.58;33.25;;;;;;;;;;4991860;28;20034;-70
2021/10/30 17:40:12;;;;;;;50.15;37.15;;;;;;;;;;4991893;28;20034;-74
2021/10/30 17:42:38;;;;;;;48.60;35.30;;;;;;;;;;4991859;28;20500;-72
2021/10/30 17:45:06;;;;;;;50.22;36.13;;;;;;;;;;4991855;28;20042;-72
2021/10/30 17:47:32;;;;;;;50.63;35.30;;;;;;;;;;5026726;28;20095;-74
2021/10/30 17:49:58;;;;;;;55.80;36.20;;;;;;;;;;5026958;28;20446;-73
2021/10/30 17:52:26;;;;;;;49.38;33.30;;;;;;;;;;5031395;28;20080;-74
2021/10/30 17:54:52;;;;;;;47.58;31.13;;;;;;;;;;5031214;28;20044;-72
2021/10/30 17:57:17;;;;;;;39.35;27.30;;;;;;;;;;5030530;28;20121;-72
2021/10/30 17:59:42;;;;;;;38.90;24.63;;;;;;;;;;5012916;28;20033;-71
2021/10/30 18:02:13;;;;;;;41.00;25.33;;;;;;;;;;5030661;28;20117;-72
2021/10/30 18:04:40;;;;;;;34.20;23.80;;;;;;;;;;5031075;28;20045;-73
2021/10/30 18:07:06;;;;;;;39.92;25.92;;;;;;;;;;5031203;28;20040;-71
2021/10/30 18:09:32;;;;;;;32.78;22.17;;;;;;;;;;5030387;28;20033;-72
2021/10/30 18:11:58;;;;;;;31.63;22.20;;;;;;;;;;5027483;28;20032;-73
2021/10/30 18:14:24;;;;;;;31.90;22.85;;;;;;;;;;5029732;28;20037;-73
2021/10/30 18:16:50;;;;;;;30.70;21.10;;;;;;;;;;5029354;28;20043;-72
2021/10/30 18:19:17;;;;;;;33.45;22.77;;;;;;;;;;5030157;28;20033;-72
2021/10/30 18:21:44;;;;;;;33.83;21.45;;;;;;;;;;5030995;28;20037;-71
2021/10/30 18:24:10;;;;;;;29.30;21.05;;;;;;;;;;5030669;28;20112;-74
2021/10/30 18:26:35;;;;;;;25.67;19.33;;;;;;;;;;5030670;28;20116;-73
2021/10/30 18:29:01;;;;;;;30.38;20.60;;;;;;;;;;5030245;28;20069;-73
2021/10/30 18:31:26;;;;;;;25.77;18.85;;;;;;;;;;5029678;28;20034;-71
2021/10/30 18:33:52;;;;;;;32.13;22.90;;;;;;;;;;5020383;28;20410;-72
2021/10/30 18:36:18;;;;;;;31.35;19.60;;;;;;;;;;5009534;28;20034;-73
2021/10/30 18:38:44;;;;;;;29.48;19.73;;;;;;;;;;4992908;28;20033;-71
2021/10/30 18:41:10;;;;;;;27.73;19.23;;;;;;;;;;5010215;28;20034;-71
2021/10/30 18:43:35;;;;;;;29.95;21.42;;;;;;;;;;5009880;28;20033;-72
2021/10/30 18:46:01;;;;;;;32.58;18.33;;;;;;;;;;5010468;28;20469;-74
2021/10/30 18:48:27;;;;;;;32.70;20.52;;;;;;;;;;5010069;28;20104;-73
2021/10/30 18:50:54;;;;;;;31.20;23.25;;;;;;;;;;5010723;28;20399;-76
2021/10/30 18:53:19;;;;;;;26.25;19.42;;;;;;;;;;4992710;28;20392;-73
2021/10/30 18:55:45;;;;;;;29.58;19.88;;;;;;;;;;5007665;28;20053;-74
2021/10/30 18:58:12;;;;;;;28.15;18.75;;;;;;;;;;5010537;28;20495;-72
2021/10/30 19:00:39;;;;;;;32.47;19.90;;;;;;;;;;5010604;28;20526;-71
2021/10/30 19:03:06;;;;;;;25.95;18.63;;;;;;;;;;5010997;28;20044;-71
2021/10/30 19:05:33;;;;;;;29.90;19.88;;;;;;;;;;5011077;28;20049;-71
2021/10/30 19:08:00;;;;;;;25.25;18.58;;;;;;;;;;5010224;28;20041;-71
2021/10/30 19:10:26;;;;;;;30.13;17.42;;;;;;;;;;5011714;28;20583;-72
2021/10/30 19:12:53;;;;;;;25.70;18.88;;;;;;;;;;5013746;28;20093;-72
2021/10/30 19:15:19;;;;;;;27.50;18.80;;;;;;;;;;5014116;28;20124;-72
2021/10/30 19:17:47;;;;;;;25.35;18.38;;;;;;;;;;5010008;28;20042;-74
2021/10/30 19:20:14;;;;;;;24.33;16.52;;;;;;;;;;5014457;28;20038;-72
2021/10/30 19:22:40;;;;;;;23.90;15.35;;;;;;;;;;5012718;28;20033;-71
2021/10/30 19:25:07;;;;;;;26.10;15.95;;;;;;;;;;5014101;28;20141;-71
2021/10/30 19:27:33;;;;;;;21.35;14.23;;;;;;;;;;5014144;28;20045;-72
2021/10/30 19:29:59;;;;;;;24.58;15.27;;;;;;;;;;5013983;28;20034;-73
2021/10/30 19:32:25;;;;;;;24.25;15.13;;;;;;;;;;5014248;28;20030;-74
2021/10/30 19:34:51;;;;;;;19.92;14.95;;;;;;;;;;5014444;28;20127;-72
2021/10/30 19:37:16;;;;;;;20.33;14.27;;;;;;;;;;5013791;28;20095;-73
2021/10/30 19:39:43;;;;;;;24.08;16.48;;;;;;;;;;5009635;28;20486;-72
2021/10/30 19:42:10;;;;;;;20.55;13.43;;;;;;;;;;5013896;28;20153;-74
2021/10/30 19:44:36;;;;;;;18.52;14.15;;;;;;;;;;5013027;28;20026;-71
2021/10/30 19:47:02;;;;;;;17.75;12.93;;;;;;;;;;5011724;28;20474;-73
2021/10/30 19:49:28;;;;;;;17.55;12.57;;;;;;;;;;4992296;28;20152;-72
2021/10/30 19:51:53;;;;;;;18.92;13.90;;;;;;;;;;4976022;28;20165;-73
2021/10/30 19:54:20;;;;;;;17.98;13.65;;;;;;;;;;4994310;28;20484;-72
2021/10/30 19:56:45;;;;;;;22.15;14.40;;;;;;;;;;4993956;28;20038;-72
2021/10/30 19:59:11;;;;;;;17.92;14.00;;;;;;;;;;4976125;28;20053;-73
2021/10/30 20:01:37;;;;;;;17.20;12.65;;;;;;;;;;4990153;28;20035;-72
2021/10/30 20:04:06;;;;;;;21.15;15.63;;;;;;;;;;4976045;28;20434;-73
2021/10/30 20:06:32;;;;;;;20.17;13.90;;;;;;;;;;4993716;28;20036;-72
2021/10/30 20:08:57;;;;;;;23.20;14.10;;;;;;;;;;4993709;28;20070;-73
